createdAt,value
2022-12-04T00:00:00.469Z,0.59
2022-12-04T00:02:28.417Z,0.58
2022-12-04T00:04:56.535Z,0.57
2022-12-04T00:07:24.495Z,0.58
2022-12-04T00:09:52.818Z,0.58
2022-12-04T00:12:21.055Z,0.58
2022-12-04T00:15:23.543Z,0.57
2022-12-04T00:17:37.099Z,0.55
2022-12-04T00:20:05.767Z,0.50
2022-12-04T00:22:34.005Z,0.47
2022-12-04T00:25:03.164Z,0.44
2022-12-04T00:27:31.065Z,0.45
2022-12-04T00:29:59.019Z,0.47
2022-12-04T00:32:26.964Z,0.46
2022-12-04T00:34:54.893Z,0.45
2022-12-04T00:37:22.798Z,0.45
2022-12-04T00:39:50.713Z,0.43
2022-12-04T00:42:18.619Z,0.42
2022-12-04T00:44:46.490Z,0.40
2022-12-04T00:47:14.405Z,0.41
2022-12-04T00:49:42.277Z,0.43
2022-12-04T00:52:10.204Z,0.42
2022-12-04T00:54:38.082Z,0.40
2022-12-04T00:57:05.973Z,0.37
2022-12-04T00:59:33.922Z,0.33
2022-12-04T01:02:01.879Z,0.29
2022-12-04T01:04:29.815Z,0.27
2022-12-04T01:07:03.175Z,0.28
2022-12-04T01:09:33.687Z,0.27
2022-12-04T01:12:01.599Z,0.27
2022-12-04T01:14:29.541Z,0.28
2022-12-04T01:16:57.489Z,0.28
2022-12-04T01:19:25.592Z,0.25
2022-12-04T01:21:53.471Z,0.22
2022-12-04T01:24:21.566Z,0.20
2022-12-04T01:26:49.436Z,0.21
2022-12-04T01:29:17.389Z,0.23
2022-12-04T01:31:45.384Z,0.25
2022-12-04T01:34:13.365Z,0.27
2022-12-04T01:36:41.285Z,0.27
2022-12-04T01:39:09.231Z,0.29
2022-12-04T01:41:37.212Z,0.31
2022-12-04T01:44:14.166Z,0.30
2022-12-04T01:46:44.634Z,0.28
2022-12-04T01:49:25.207Z,0.27
2022-12-04T01:51:59.152Z,0.30
2022-12-04T01:54:32.446Z,0.33
2022-12-04T01:57:12.569Z,0.36
2022-12-04T01:59:45.651Z,0.40
2022-12-04T02:02:17.738Z,0.40
2022-12-04T02:04:46.137Z,0.36
2022-12-04T02:07:14.089Z,0.34
2022-12-04T02:09:43.137Z,0.35
2022-12-04T02:12:41.759Z,0.35
2022-12-04T02:15:29.869Z,0.35
2022-12-04T02:18:23.715Z,0.34
2022-12-04T02:20:57.400Z,0.31
2022-12-04T02:23:34.319Z,0.27
2022-12-04T02:26:23.988Z,0.24
2022-12-04T02:28:57.909Z,0.22
2022-12-04T02:31:33.749Z,0.21
2022-12-04T02:34:16.939Z,0.22
2022-12-04T02:36:54.848Z,0.21
2022-12-04T02:39:36.168Z,0.24
2022-12-04T02:42:22.067Z,0.28
2022-12-04T02:44:57.434Z,0.32
2022-12-04T02:47:26.812Z,0.33
2022-12-04T02:49:59.531Z,0.33
2022-12-04T02:52:53.315Z,0.33
2022-12-04T02:55:31.937Z,0.36
2022-12-04T02:58:07.480Z,0.39
2022-12-04T03:00:36.963Z,0.39
2022-12-04T03:03:35.129Z,0.40
2022-12-04T03:06:07.892Z,0.36
2022-12-04T03:08:46.099Z,0.31
2022-12-04T03:11:14.042Z,0.28
2022-12-04T03:13:47.999Z,0.27
2022-12-04T03:16:24.692Z,0.28
2022-12-04T03:19:11.004Z,0.27
2022-12-04T03:21:46.359Z,0.26
2022-12-04T03:24:24.604Z,0.25
2022-12-04T03:27:01.029Z,0.24
2022-12-04T03:29:39.264Z,0.24
2022-12-04T03:32:27.561Z,0.22
2022-12-04T03:34:55.406Z,0.21
2022-12-04T03:37:53.431Z,0.22
2022-12-04T03:40:30.703Z,0.22
2022-12-04T03:43:06.260Z,0.24
2022-12-04T03:45:44.497Z,0.23
2022-12-04T03:48:28.524Z,0.21
2022-12-04T03:51:19.973Z,0.20
2022-12-04T03:53:56.547Z,0.18
2022-12-04T03:56:31.483Z,0.18
2022-12-04T03:59:06.668Z,0.17
2022-12-04T04:01:38.920Z,0.21
2022-12-04T04:04:12.803Z,0.21
2022-12-04T04:06:46.265Z,0.21
2022-12-04T04:09:21.518Z,0.22
2022-12-04T04:11:56.437Z,0.22
2022-12-04T04:14:49.651Z,0.22
2022-12-04T04:17:39.148Z,0.22
2022-12-04T04:20:31.736Z,0.23
2022-12-04T04:23:21.660Z,0.25
2022-12-04T04:25:53.018Z,0.27
2022-12-04T04:28:41.985Z,0.29
2022-12-04T04:31:13.144Z,0.29
2022-12-04T04:34:07.245Z,0.26
2022-12-04T04:37:00.000Z,0.29
2022-12-04T04:39:39.892Z,0.33
2022-12-04T04:42:15.347Z,0.40
2022-12-04T04:45:00.736Z,0.42
2022-12-04T04:47:37.457Z,0.37
2022-12-04T04:50:10.572Z,0.33
2022-12-04T04:52:42.287Z,0.29
2022-12-04T04:55:10.867Z,0.30
2022-12-04T04:57:38.951Z,0.29
2022-12-04T05:00:20.667Z,0.29
2022-12-04T05:02:50.395Z,0.31
2022-12-04T05:05:18.647Z,0.32
2022-12-04T05:07:46.712Z,0.30
2022-12-04T05:10:14.713Z,0.25
2022-12-04T05:12:42.571Z,0.20
2022-12-04T05:15:10.969Z,0.19
2022-12-04T05:17:38.881Z,0.20
2022-12-04T05:20:09.055Z,0.21
2022-12-04T05:22:38.055Z,0.24
2022-12-04T05:25:06.369Z,0.24
2022-12-04T05:27:34.438Z,0.22
2022-12-04T05:30:02.613Z,0.19
2022-12-04T05:32:30.623Z,0.17
2022-12-04T05:34:58.830Z,0.19
2022-12-04T05:37:26.822Z,0.21
2022-12-04T05:39:55.047Z,0.21
2022-12-04T05:42:23.247Z,0.22
2022-12-04T05:44:51.166Z,0.22
2022-12-04T05:47:19.075Z,0.20
2022-12-04T05:49:47.051Z,0.19
2022-12-04T05:52:14.938Z,0.20
2022-12-04T05:54:42.844Z,0.22
2022-12-04T05:57:10.785Z,0.24
2022-12-04T05:59:38.928Z,0.28
2022-12-04T06:02:06.873Z,0.29
2022-12-04T06:04:37.242Z,0.27
2022-12-04T06:07:05.217Z,0.24
2022-12-04T06:09:33.190Z,0.24
2022-12-04T06:12:01.076Z,0.23
2022-12-04T06:14:29.102Z,0.21
2022-12-04T06:16:57.150Z,0.21
2022-12-04T06:19:25.150Z,0.21
2022-12-04T06:21:53.473Z,0.20
2022-12-04T06:24:23.628Z,0.16
2022-12-04T06:27:27.163Z,0.13
2022-12-04T06:29:44.393Z,0.15
2022-12-04T06:32:15.206Z,0.16
2022-12-04T06:34:51.546Z,0.17
2022-12-04T06:37:20.057Z,0.18
2022-12-04T06:39:48.177Z,0.18
2022-12-04T06:42:16.441Z,0.19
2022-12-04T06:44:44.410Z,0.18
2022-12-04T06:47:12.505Z,0.18
2022-12-04T06:49:40.398Z,0.19
2022-12-04T06:52:08.312Z,0.22
2022-12-04T06:54:36.171Z,0.23
2022-12-04T06:57:04.163Z,0.26
2022-12-04T06:59:33.706Z,0.26
2022-12-04T07:02:01.695Z,0.22
2022-12-04T07:04:29.683Z,0.21
2022-12-04T07:06:57.773Z,0.21
2022-12-04T07:09:25.737Z,0.21
2022-12-04T07:11:55.124Z,0.22
2022-12-04T07:14:23.152Z,0.25
2022-12-04T07:16:51.527Z,0.27
2022-12-04T07:19:19.546Z,0.30
2022-12-04T07:21:47.456Z,0.31
2022-12-04T07:24:17.400Z,0.32
2022-12-04T07:26:45.754Z,0.36
2022-12-04T07:29:13.779Z,0.41
2022-12-04T07:31:41.874Z,0.43
2022-12-04T07:34:10.004Z,0.48
2022-12-04T07:36:39.392Z,0.50
2022-12-04T07:39:07.382Z,0.47
2022-12-04T07:41:35.453Z,0.54
2022-12-04T07:44:06.480Z,0.59
2022-12-04T07:46:34.507Z,0.63
2022-12-04T07:49:02.761Z,0.69
2022-12-04T07:51:30.734Z,0.75
2022-12-04T07:54:03.148Z,0.80
2022-12-04T07:56:33.440Z,0.82
2022-12-04T07:59:02.217Z,0.86
2022-12-04T08:01:30.907Z,0.92
2022-12-04T08:04:00.664Z,0.97
2022-12-04T08:06:30.296Z,1.00
2022-12-04T08:08:58.215Z,1.01
2022-12-04T08:11:28.250Z,1.04
2022-12-04T08:13:58.149Z,1.08
2022-12-04T08:16:27.690Z,1.07
2022-12-04T08:18:56.166Z,1.10
2022-12-04T08:21:27.000Z,1.16
2022-12-04T08:23:56.101Z,1.20
2022-12-04T08:26:26.166Z,1.17
2022-12-04T08:28:55.794Z,1.15
2022-12-04T08:31:26.388Z,1.18
2022-12-04T08:33:57.069Z,1.21
2022-12-04T08:36:25.926Z,1.26
2022-12-04T08:38:54.184Z,1.27
2022-12-04T08:41:24.356Z,1.29
2022-12-04T08:43:54.974Z,1.31
2022-12-04T08:46:24.587Z,1.35
2022-12-04T08:48:52.781Z,1.38
2022-12-04T08:51:32.061Z,1.44
2022-12-04T08:54:03.149Z,1.49
2022-12-04T08:56:31.725Z,1.53
2022-12-04T08:59:00.942Z,1.60
2022-12-04T09:01:29.711Z,1.64
2022-12-04T09:03:58.002Z,1.72
2022-12-04T09:06:26.258Z,1.79
2022-12-04T09:08:55.545Z,1.86
2022-12-04T09:11:27.352Z,1.87
2022-12-04T09:13:56.534Z,1.88
2022-12-04T09:16:26.751Z,1.87
2022-12-04T09:18:55.844Z,1.88
2022-12-04T09:21:24.907Z,1.86
2022-12-04T09:23:53.026Z,1.88
2022-12-04T09:26:27.447Z,1.91
2022-12-04T09:28:58.023Z,1.90
2022-12-04T09:31:27.015Z,1.87
2022-12-04T09:33:55.171Z,1.86
2022-12-04T09:36:23.505Z,1.86
2022-12-04T09:38:53.714Z,1.89
2022-12-04T09:41:36.831Z,1.93
2022-12-04T09:44:10.677Z,2.00
2022-12-04T09:46:42.882Z,2.00
2022-12-04T09:49:17.632Z,2.00
2022-12-04T09:51:46.880Z,2.01
2022-12-04T09:54:18.436Z,2.04
2022-12-04T09:57:15.800Z,2.08
2022-12-04T09:59:45.724Z,2.08
2022-12-04T10:02:34.224Z,2.06
2022-12-04T10:05:03.757Z,2.10
2022-12-04T10:08:03.340Z,2.11
2022-12-04T10:10:37.701Z,2.15
2022-12-04T10:13:32.086Z,2.23
2022-12-04T10:16:09.452Z,2.38
2022-12-04T10:19:14.269Z,2.48
2022-12-04T10:21:55.689Z,2.61
2022-12-04T10:24:28.008Z,2.65
2022-12-04T10:26:58.753Z,2.66
2022-12-04T10:29:33.284Z,2.68
2022-12-04T10:32:27.309Z,2.67
2022-12-04T10:35:00.016Z,2.68
2022-12-04T10:37:29.231Z,2.66
2022-12-04T10:40:10.032Z,2.63
2022-12-04T10:42:47.137Z,2.59
2022-12-04T10:45:15.431Z,2.66
2022-12-04T10:47:46.638Z,2.73
2022-12-04T10:50:21.131Z,2.77
2022-12-04T10:52:50.190Z,2.84
2022-12-04T10:55:31.639Z,2.85
2022-12-04T10:58:00.467Z,2.89
2022-12-04T11:00:35.369Z,2.97
2022-12-04T11:03:24.688Z,3.04
2022-12-04T11:05:59.181Z,3.08
2022-12-04T11:08:36.232Z,3.07
2022-12-04T11:11:11.371Z,3.07
2022-12-04T11:13:40.973Z,3.07
2022-12-04T11:16:28.991Z,3.07
2022-12-04T11:18:56.962Z,3.08
2022-12-04T11:21:29.567Z,3.11
2022-12-04T11:23:58.664Z,3.11
2022-12-04T11:26:36.205Z,3.11
2022-12-04T11:29:06.310Z,3.08
2022-12-04T11:31:34.710Z,3.10
2022-12-04T11:34:07.601Z,3.14
2022-12-04T11:36:40.728Z,3.23
2022-12-04T11:39:12.356Z,3.29
2022-12-04T11:41:40.595Z,3.29
2022-12-04T11:44:26.571Z,3.26
2022-12-04T11:46:58.309Z,3.23
2022-12-04T11:49:28.970Z,3.23
2022-12-04T11:52:21.365Z,3.25
2022-12-04T11:55:12.934Z,3.24
2022-12-04T11:58:00.554Z,3.23
2022-12-04T12:00:29.861Z,3.20
2022-12-04T12:03:18.595Z,3.21
2022-12-04T12:05:46.682Z,3.27
2022-12-04T12:08:28.767Z,3.27
2022-12-04T12:11:02.493Z,3.25
2022-12-04T12:13:54.699Z,3.19
2022-12-04T12:16:37.912Z,3.16
2022-12-04T12:19:26.778Z,3.16
2022-12-04T12:22:26.186Z,3.26
2022-12-04T12:25:13.073Z,3.55
2022-12-04T12:27:44.188Z,3.80
2022-12-04T12:30:19.799Z,3.99
2022-12-04T12:33:18.930Z,3.96
2022-12-04T12:35:55.446Z,3.94
2022-12-04T12:38:28.307Z,3.96
2022-12-04T12:41:04.643Z,3.92
2022-12-04T12:43:37.388Z,3.90
2022-12-04T12:46:16.086Z,3.84
2022-12-04T12:48:58.163Z,3.79
2022-12-04T12:51:34.603Z,3.68
2022-12-04T12:54:20.315Z,3.55
2022-12-04T12:56:55.465Z,3.41
2022-12-04T12:59:27.474Z,3.32
2022-12-04T13:02:02.393Z,3.30
2022-12-04T13:04:37.826Z,3.32
2022-12-04T13:07:22.397Z,3.31
2022-12-04T13:10:07.574Z,3.29
2022-12-04T13:13:02.130Z,3.27
2022-12-04T13:15:45.594Z,3.28
2022-12-04T13:18:27.622Z,3.27
2022-12-04T13:20:59.609Z,3.26
2022-12-04T13:23:36.360Z,3.26
2022-12-04T13:26:49.273Z,3.19
2022-12-04T13:29:35.774Z,3.14
2022-12-04T13:32:28.443Z,3.07
2022-12-04T13:35:11.746Z,2.99
2022-12-04T13:37:48.804Z,2.95
2022-12-04T13:40:43.093Z,2.88
2022-12-04T13:43:17.990Z,2.84
2022-12-04T13:45:49.670Z,2.81
2022-12-04T13:48:41.155Z,2.76
2022-12-04T13:51:15.146Z,2.76
2022-12-04T13:53:43.808Z,2.78
2022-12-04T13:56:30.036Z,2.88
2022-12-04T13:59:04.403Z,3.11
2022-12-04T14:01:41.057Z,3.54
2022-12-04T14:04:23.987Z,3.80
2022-12-04T14:06:52.706Z,3.77
2022-12-04T14:09:53.429Z,3.71
2022-12-04T14:12:27.404Z,3.62
2022-12-04T14:15:02.178Z,3.53
2022-12-04T14:17:33.759Z,3.37
2022-12-04T14:20:24.744Z,3.22
2022-12-04T14:22:53.016Z,3.04
2022-12-04T14:25:34.838Z,2.96
2022-12-04T14:28:42.278Z,2.87
2022-12-04T14:31:19.655Z,2.75
2022-12-04T14:33:52.383Z,2.67
2022-12-04T14:36:33.918Z,2.57
2022-12-04T14:39:07.749Z,2.47
2022-12-04T14:41:35.845Z,2.39
2022-12-04T14:44:03.830Z,2.33
2022-12-04T14:46:46.455Z,2.25
2022-12-04T14:49:25.899Z,2.17
2022-12-04T14:52:18.731Z,2.10
2022-12-04T14:55:25.897Z,2.05
2022-12-04T14:57:59.274Z,2.01
2022-12-04T15:00:27.352Z,2.00
2022-12-04T15:02:59.358Z,1.98
2022-12-04T15:05:30.443Z,1.96
2022-12-04T15:08:05.261Z,1.94
2022-12-04T15:10:53.726Z,1.89
2022-12-04T15:13:37.391Z,1.85
2022-12-04T15:16:18.939Z,1.85
2022-12-04T15:18:58.292Z,1.84
2022-12-04T15:21:37.697Z,1.81
2022-12-04T15:24:10.736Z,1.76
2022-12-04T15:26:39.960Z,1.71
2022-12-04T15:29:09.542Z,1.65
2022-12-04T15:31:43.575Z,1.62
2022-12-04T15:34:16.238Z,1.60
2022-12-04T15:37:16.292Z,1.58
2022-12-04T15:39:45.380Z,1.56
2022-12-04T15:42:17.628Z,1.55
2022-12-04T15:45:03.627Z,1.55
2022-12-04T15:47:37.472Z,1.59
2022-12-04T15:50:27.260Z,1.64
2022-12-04T15:53:01.111Z,1.67
2022-12-04T15:55:32.401Z,1.67
2022-12-04T15:58:52.269Z,1.63
2022-12-04T16:01:21.268Z,1.60
2022-12-04T16:03:52.232Z,1.62
2022-12-04T16:06:33.491Z,1.65
2022-12-04T16:09:23.776Z,1.67
2022-12-04T16:12:16.496Z,1.65
2022-12-04T16:14:44.516Z,1.60
2022-12-04T16:17:13.843Z,1.57
2022-12-04T16:19:42.457Z,1.54
2022-12-04T16:22:13.930Z,1.53
2022-12-04T16:24:42.207Z,1.51
2022-12-04T16:27:12.691Z,1.46
2022-12-04T16:29:40.862Z,1.38
2022-12-04T16:32:14.217Z,1.29
2022-12-04T16:34:42.337Z,1.21
2022-12-04T16:37:17.342Z,1.15
2022-12-04T16:39:45.887Z,1.14
2022-12-04T16:42:22.896Z,1.15
2022-12-04T16:44:52.017Z,1.16
2022-12-04T16:47:20.031Z,1.17
2022-12-04T16:49:50.389Z,1.14
2022-12-04T16:52:19.865Z,1.11
2022-12-04T16:54:48.302Z,1.08
2022-12-04T16:58:06.541Z,1.04
2022-12-04T17:00:34.681Z,1.04
2022-12-04T17:03:04.383Z,1.06
2022-12-04T17:05:35.773Z,1.09
2022-12-04T17:08:03.838Z,1.09
2022-12-04T17:10:31.815Z,1.07
2022-12-04T17:12:59.862Z,1.04
2022-12-04T17:15:27.842Z,1.04
2022-12-04T17:17:55.722Z,1.07
2022-12-04T17:20:23.950Z,1.08
2022-12-04T17:22:51.999Z,1.09
2022-12-04T17:25:20.278Z,1.10
2022-12-04T17:27:48.176Z,1.07
2022-12-04T17:30:16.469Z,1.05
2022-12-04T17:32:44.392Z,1.04
2022-12-04T17:35:12.634Z,1.04
2022-12-04T17:37:40.658Z,1.06
2022-12-04T17:40:16.183Z,1.11
2022-12-04T17:42:44.413Z,1.13
2022-12-04T17:45:12.467Z,1.14
2022-12-04T17:47:44.931Z,1.13
2022-12-04T17:50:13.021Z,1.15
2022-12-04T17:52:40.930Z,1.18
2022-12-04T17:55:11.654Z,1.20
2022-12-04T17:57:39.607Z,1.24
2022-12-04T18:00:08.341Z,1.24
2022-12-04T18:03:06.697Z,1.19
2022-12-04T18:05:36.298Z,1.17
2022-12-04T18:08:31.919Z,1.17
2022-12-04T18:11:04.386Z,1.19
2022-12-04T18:13:32.629Z,1.20
2022-12-04T18:16:11.380Z,1.22
2022-12-04T18:18:42.283Z,1.21
2022-12-04T18:21:12.061Z,1.17
2022-12-04T18:23:47.281Z,1.15
2022-12-04T18:26:21.504Z,1.15
2022-12-04T18:28:50.937Z,1.16
2022-12-04T18:31:22.041Z,1.15
2022-12-04T18:33:50.733Z,1.14
2022-12-04T18:36:25.446Z,1.13
2022-12-04T18:38:57.918Z,1.13
2022-12-04T18:41:27.203Z,1.12
2022-12-04T18:43:59.062Z,1.10
2022-12-04T18:46:27.336Z,1.08
2022-12-04T18:48:58.966Z,1.07
2022-12-04T18:51:35.631Z,1.06
2022-12-04T18:54:10.873Z,1.05
2022-12-04T18:56:39.244Z,1.04
2022-12-04T18:59:16.722Z,1.00
2022-12-04T19:01:44.863Z,0.95
2022-12-04T19:04:15.111Z,0.91
2022-12-04T19:06:49.087Z,0.90
2022-12-04T19:09:20.919Z,0.90
2022-12-04T19:11:49.125Z,0.87
2022-12-04T19:14:23.385Z,0.83
2022-12-04T19:16:52.128Z,0.80
2022-12-04T19:19:20.116Z,0.76
2022-12-04T19:21:48.171Z,0.76
2022-12-04T19:24:16.193Z,0.74
2022-12-04T19:26:45.027Z,0.73
2022-12-04T19:29:14.175Z,0.75
2022-12-04T19:31:42.618Z,0.76
2022-12-04T19:34:10.800Z,0.75
2022-12-04T19:36:40.327Z,0.70
2022-12-04T19:39:08.437Z,0.71
2022-12-04T19:41:38.682Z,0.73
2022-12-04T19:44:26.305Z,0.74
2022-12-04T19:47:00.574Z,0.73
2022-12-04T19:49:29.630Z,0.69
2022-12-04T19:51:57.651Z,0.66
2022-12-04T19:54:26.119Z,0.63
2022-12-04T19:56:54.109Z,0.61
2022-12-04T19:59:22.040Z,0.59
2022-12-04T20:01:50.200Z,0.56
2022-12-04T20:04:18.384Z,0.58
2022-12-04T20:06:47.277Z,0.59
2022-12-04T20:09:20.095Z,0.57
2022-12-04T20:11:48.587Z,0.53
2022-12-04T20:14:17.137Z,0.52
2022-12-04T20:16:45.340Z,0.54
2022-12-04T20:19:16.788Z,0.56
2022-12-04T20:21:47.956Z,0.58
2022-12-04T20:24:31.226Z,0.62
2022-12-04T20:27:07.928Z,0.60
2022-12-04T20:29:36.103Z,0.59
2022-12-04T20:32:04.179Z,0.55
2022-12-04T20:34:32.250Z,0.74
2022-12-04T20:37:03.410Z,0.83
2022-12-04T20:39:32.882Z,0.81
2022-12-04T20:42:01.277Z,0.78
2022-12-04T20:44:29.194Z,0.75
2022-12-04T20:47:01.006Z,0.69
2022-12-04T20:49:28.926Z,0.63
2022-12-04T20:51:58.058Z,0.62
2022-12-04T20:54:26.012Z,0.65
2022-12-04T20:56:54.305Z,0.69
2022-12-04T20:59:24.371Z,0.72
2022-12-04T21:01:52.594Z,0.71
2022-12-04T21:04:25.319Z,0.68
2022-12-04T21:06:53.249Z,0.67
2022-12-04T21:09:23.838Z,0.67
2022-12-04T21:11:54.773Z,0.73
2022-12-04T21:15:03.711Z,0.76
2022-12-04T21:17:31.688Z,0.77
2022-12-04T21:20:05.852Z,0.74
2022-12-04T21:22:35.854Z,0.73
2022-12-04T21:25:04.235Z,0.71
2022-12-04T21:27:34.227Z,0.75
2022-12-04T21:30:02.335Z,0.76
2022-12-04T21:32:30.324Z,0.76
2022-12-04T21:35:01.673Z,0.74
2022-12-04T21:37:29.639Z,0.72
2022-12-04T21:40:00.381Z,0.66
2022-12-04T21:42:35.502Z,0.57
2022-12-04T21:45:09.005Z,0.53
2022-12-04T21:47:40.069Z,0.48
2022-12-04T21:50:08.660Z,0.45
2022-12-04T21:52:36.759Z,0.42
2022-12-04T21:55:08.010Z,0.34
2022-12-04T21:57:35.878Z,0.30
2022-12-04T22:00:07.840Z,0.27
2022-12-04T22:02:38.032Z,0.25
2022-12-04T22:05:08.644Z,0.24
2022-12-04T22:07:39.515Z,0.26
2022-12-04T22:10:10.883Z,0.23
2022-12-04T22:12:49.723Z,0.18
2022-12-04T22:15:20.950Z,0.16
2022-12-04T22:17:48.909Z,0.17
2022-12-04T22:20:19.070Z,0.10
2022-12-04T22:22:46.970Z,0.21
2022-12-04T22:25:15.031Z,0.20
2022-12-04T22:27:46.203Z,0.17
2022-12-04T22:30:14.470Z,0.16
2022-12-04T22:32:45.449Z,0.15
2022-12-04T22:35:13.422Z,0.14
2022-12-04T22:37:44.750Z,0.12
2022-12-04T22:40:14.845Z,0.10
2022-12-04T22:43:00.931Z,0.06
2022-12-04T22:45:30.923Z,0.02
2022-12-04T22:47:58.829Z,-0.02
2022-12-04T22:50:31.460Z,0.01
2022-12-04T22:52:59.376Z,0.03
2022-12-04T22:55:27.284Z,0.05
2022-12-04T22:57:55.194Z,0.06
2022-12-04T23:00:23.067Z,0.07
2022-12-04T23:02:50.959Z,0.03
2022-12-04T23:05:18.947Z,0.00
2022-12-04T23:07:46.909Z,-0.01
2022-12-04T23:10:14.932Z,0.05
2022-12-04T23:12:42.817Z,0.08
2022-12-04T23:15:11.039Z,0.05
2022-12-04T23:17:38.949Z,0.02
2022-12-04T23:20:07.538Z,0.02
2022-12-04T23:22:35.387Z,0.02
2022-12-04T23:25:03.994Z,0.04
2022-12-04T23:27:32.494Z,0.07
2022-12-04T23:30:00.448Z,0.12
2022-12-04T23:32:28.352Z,0.14
2022-12-04T23:34:56.285Z,0.13
2022-12-04T23:37:24.192Z,0.11
2022-12-04T23:39:52.140Z,0.12
2022-12-04T23:42:20.103Z,0.12
2022-12-04T23:44:48.028Z,0.16
2022-12-04T23:47:16.102Z,0.22
2022-12-04T23:49:44.079Z,0.23
2022-12-04T23:52:12.122Z,0.22
2022-12-04T23:54:40.131Z,0.21
2022-12-04T23:57:08.257Z,0.20
2022-12-04T23:59:36.145Z,0.20
